S C — FGF7634 — position and weather

sailwx.info

Track history (hours):
 
Tides and Currents Weather Stations Pressure Air Temp Water Temp Dewpoint Dewpoint Depression Visibility Wind Speed Wind Dir Waves Ship Positions

S C

Last reported at 2017-Oct-20 14:14 UTC. Time now 2017-Oct-22 06:40 UTC.
Position N 49°29' E 000°07'.

; draft 1 m.

Type: Pilot. MMSI: 227001820.

Date/timePositionNaut miles runAvg speedWind from/ knotsBaromVisibWave heightAir tempDewpointWater temp
2017-Oct-20 14:14N 49°29' E 000°07'0 0.0
2017-Oct-20 13:20N 49°29' E 000°07'0 0.0
2017-Oct-20 13:01N 49°29' E 000°07'0 0.0
2017-Oct-20 12:31N 49°29' E 000°07'0 0.0
2017-Oct-20 12:00N 49°29' E 000°07'0 0.0
2017-Oct-20 11:31N 49°29' E 000°07'0 0.0
2017-Oct-20 11:00N 49°29' E 000°07'0 0.0
2017-Oct-20 10:31N 49°29' E 000°07'0 0.0
2017-Oct-20 10:00N 49°29' E 000°07'0 0.0
2017-Oct-20 09:30N 49°29' E 000°07'0 0.0
2017-Oct-20 09:00N 49°29' E 000°07'0 0.0
2017-Oct-20 08:30N 49°29' E 000°07'0 0.0
2017-Oct-20 08:00N 49°29' E 000°07'0 0.0
2017-Oct-20 07:31N 49°29' E 000°07'0 0.0
2017-Oct-20 07:01N 49°29' E 000°07'0 0.0
2017-Oct-20 06:30N 49°29' E 000°07'0 0.0
2017-Oct-20 06:00N 49°29' E 000°07'0 0.0
2017-Oct-19 18:26N 49°29' E 000°07'716.4
2017-Oct-19 18:00N 49°31' W 000°04'713.7
2017-Oct-19 17:31N 49°29' E 000°07'0 0.3
2017-Oct-19 17:00N 49°29' E 000°07'0 0.0
2017-Oct-19 16:30N 49°29' E 000°07'0 0.0
2017-Oct-19 16:01N 49°29' E 000°07'0 0.0
2017-Oct-19 15:30N 49°29' E 000°07'0 0.0
2017-Oct-19 15:00N 49°29' E 000°07'0 0.0
2017-Oct-19 14:31N 49°29' E 000°07'0 0.0
2017-Oct-19 14:01N 49°29' E 000°07'0 0.0
2017-Oct-19 13:30N 49°29' E 000°07'0 0.0
2017-Oct-19 13:01N 49°29' E 000°07'0 0.0
2017-Oct-19 12:31N 49°29' E 000°07'0 0.0
2017-Oct-19 12:01N 49°29' E 000°07'0 0.0
2017-Oct-19 11:30N 49°29' E 000°07'0 0.0
2017-Oct-19 11:01N 49°29' E 000°07'0 0.0
2017-Oct-19 10:30N 49°29' E 000°07'5 9.9
2017-Oct-19 10:00N 49°30' W 000°01'5 9.9
2017-Oct-19 09:30N 49°29' E 000°07'0 0.0
2017-Oct-19 09:00N 49°29' E 000°07'0 0.0
2017-Oct-19 08:30N 49°29' E 000°07'0 0.0
2017-Oct-19 08:00N 49°29' E 000°07'0 0.3
2017-Oct-19 07:30N 49°29' E 000°07'510.2
2017-Oct-19 07:00N 49°30' W 000°01'510.3
2017-Oct-19 06:30N 49°29' E 000°07'0 0.0
2017-Oct-19 06:00N 49°29' E 000°07'0 0.0
2017-Oct-19 05:30N 49°29' E 000°07'0 0.0
2017-Oct-19 05:00N 49°29' E 000°07'0 0.0
2017-Oct-19 04:30N 49°29' E 000°07'0 0.0
2017-Oct-19 04:00N 49°29' E 000°07'2 4.8
2017-Oct-19 03:30N 49°30' E 000°03'2 3.6
2017-Oct-19 03:00N 49°31' E 000°01'4 8.3
2017-Oct-19 02:30N 49°29' E 000°07'0 0.0
2017-Oct-19 02:00N 49°29' E 000°07'4 7.5
2017-Oct-19 01:31N 49°30' E 000°01'4 7.5
2017-Oct-19 01:00N 49°29' E 000°07'0 0.0
2017-Oct-19 00:30N 49°29' E 000°07'0 0.0
2017-Oct-19 00:00N 49°29' E 000°07'0 0.0
2017-Oct-18 23:30N 49°29' E 000°07'0 0.0
2017-Oct-18 23:00N 49°29' E 000°07'0 0.0
2017-Oct-18 22:30N 49°29' E 000°07'510.6
2017-Oct-18 22:00N 49°31' W 000°01'510.6
2017-Oct-18 21:30N 49°29' E 000°07'0 0.0
2017-Oct-18 21:01N 49°29' E 000°07'0 0.0
2017-Oct-18 20:31N 49°29' E 000°07'0 0.0
2017-Oct-18 20:00N 49°29' E 000°07'714.0
2017-Oct-18 19:30N 49°31' W 000°04'713.9
2017-Oct-18 19:00N 49°29' E 000°07'0 0.0
2017-Oct-18 18:30N 49°29' E 000°07'1 2.0
2017-Oct-18 18:00N 49°29' E 000°05'713.6
2017-Oct-18 17:30N 49°31' W 000°05'815.5
2017-Oct-18 17:00N 49°29' E 000°07'612.5
2017-Oct-18 16:30N 49°31' W 000°03'2 3.5
2017-Oct-18 16:00N 49°31' W 000°05'815.9
2017-Oct-18 15:30N 49°29' E 000°07'0 0.2
2017-Oct-18 15:00N 49°29' E 000°07'0 0.0
2017-Oct-18 14:00N 49°29' E 000°07'0 0.0
2017-Oct-18 13:30N 49°29' E 000°07'0 0.6
2017-Oct-18 13:01N 49°29' E 000°06'0 0.2
2017-Oct-18 12:30N 49°29' E 000°06'0 0.4
2017-Oct-18 12:00N 49°29' E 000°07'0 0.0
2017-Oct-18 11:31N 49°29' E 000°07'0 0.0
2017-Oct-18 11:01N 49°29' E 000°07'2 3.9
2017-Oct-18 10:30N 49°30' E 000°04'611.7
2017-Oct-18 10:00N 49°32' W 000°05'815.6
2017-Oct-18 09:30N 49°29' E 000°07'0 0.0
2017-Oct-18 09:01N 49°29' E 000°07'0 0.0
2017-Oct-18 08:31N 49°29' E 000°07'1 1.5
2017-Oct-18 08:01N 49°29' E 000°06'2 4.0
2017-Oct-18 07:31N 49°30' E 000°03'3 5.5
2017-Oct-18 07:00N 49°29' E 000°07'0 0.0
2017-Oct-18 06:31N 49°29' E 000°07'0 0.0
2017-Oct-18 06:00N 49°29' E 000°07'0 0.0
2017-Oct-18 05:31N 49°29' E 000°07'0 0.0
2017-Oct-18 05:01N 49°29' E 000°07'0 0.0
2017-Oct-18 04:30N 49°29' E 000°07'0 0.0
2017-Oct-18 04:01N 49°29' E 000°07'713.7
2017-Oct-18 03:31N 49°31' W 000°03'0 0.5
2017-Oct-18 03:00N 49°31' W 000°03'2 3.2
2017-Oct-18 02:31N 49°31' W 000°06'816.7
2017-Oct-18 02:00N 49°29' E 000°07'0 0.0
2017-Oct-18 01:30N 49°29' E 000°07'0 0.0
2017-Oct-18 01:00N 49°29' E 000°07'2 4.4
2017-Oct-18 00:31N 49°30' E 000°03'2 4.4
2017-Oct-18 00:00N 49°29' E 000°07'0 0.0
2017-Oct-17 23:30N 49°29' E 000°07'0 0.0
2017-Oct-17 23:00N 49°29' E 000°07'0 0.0
2017-Oct-17 22:30N 49°29' E 000°07'0 0.0
2017-Oct-17 22:00N 49°29' E 000°07'0 0.0
2017-Oct-17 21:30N 49°29' E 000°07'713.2
2017-Oct-17 21:01N 49°31' W 000°03'612.4
2017-Oct-17 20:30N 49°29' E 000°06'0 0.8
2017-Oct-17 20:00N 49°29' E 000°07'3 6.6
2017-Oct-17 19:31N 49°30' E 000°02'4 7.5
2017-Oct-17 19:01N 49°31' W 000°04'714.1
2017-Oct-17 18:30N 49°29' E 000°07'0 0.0
2017-Oct-17 18:01N 49°29' E 000°07'510.8
2017-Oct-17 17:30N 49°30' W 000°01'510.9
2017-Oct-17 17:01N 49°29' E 000°07'0 0.0
2017-Oct-17 16:30N 49°29' E 000°07'0 0.0
2017-Oct-17 16:00N 49°29' E 000°07'0 0.0
2017-Oct-17 15:31N 49°29' E 000°07'0 0.0
2017-Oct-17 15:01N 49°29' E 000°07'4 8.5
2017-Oct-17 14:30N 49°30' E 000°00'1 2.4
2017-Oct-17 14:00N 49°29' W 000°01'5 9.7
2017-Oct-17 13:30N 49°29' E 000°06'1 1.0
2017-Oct-17 13:00N 49°29' E 000°07'0 0.0
2017-Oct-17 12:30N 49°29' E 000°07'0 0.0
2017-Oct-17 12:00N 49°29' E 000°07'0 0.0
2017-Oct-17 11:30N 49°29' E 000°07'0 0.0
2017-Oct-17 11:00N 49°29' E 000°07'0 0.0
2017-Oct-17 10:30N 49°29' E 000°07'2 3.4
2017-Oct-17 10:01N 49°29' E 000°04'2 3.3
2017-Oct-17 09:30N 49°29' E 000°07'0 0.0
2017-Oct-17 09:00N 49°29' E 000°07'0 0.0
2017-Oct-17 08:30N 49°29' E 000°07'0 0.0
2017-Oct-17 08:00N 49°29' E 000°07'0 0.0
2017-Oct-17 07:30N 49°29' E 000°07'0 0.0
2017-Oct-17 07:00N 49°29' E 000°07'0 0.0
2017-Oct-17 06:30N 49°29' E 000°07'0 0.0
2017-Oct-17 06:00N 49°29' E 000°07'0 0.3
2017-Oct-17 05:30N 49°29' E 000°07'0 0.3
2017-Oct-17 05:00N 49°29' E 000°07'0 0.0
2017-Oct-17 04:30N 49°29' E 000°07'611.1
2017-Oct-17 04:01N 49°31' W 000°01'1 1.5
2017-Oct-17 03:31N 49°30' W 000°00'5 9.5
2017-Oct-17 03:00N 49°29' E 000°07'4 8.1
2017-Oct-17 02:30N 49°30' E 000°01'4 7.6
2017-Oct-17 02:00N 49°31' W 000°05'815.5
2017-Oct-17 01:30N 49°29' E 000°07'0 0.1
2017-Oct-17 01:00N 49°29' E 000°07'0 0.0
2017-Oct-17 00:30N 49°29' E 000°07'0 0.0
2017-Oct-17 00:01N 49°29' E 000°07'0 0.0
2017-Oct-16 23:30N 49°29' E 000°07'0 0.0
2017-Oct-16 23:00N 49°29' E 000°07'0 0.0
2017-Oct-16 22:30N 49°29' E 000°07'0 0.0
2017-Oct-16 22:01N 49°29' E 000°07'0 0.0
2017-Oct-16 21:30N 49°29' E 000°07'3 6.2
2017-Oct-16 21:00N 49°30' E 000°02'1 2.4
2017-Oct-16 20:30N 49°29' E 000°04'2 3.9
2017-Oct-16 20:00N 49°29' E 000°07'0 0.0
2017-Oct-16 19:30N 49°29' E 000°07'2 4.5
2017-Oct-16 19:00N 49°30' E 000°03'3 5.4
2017-Oct-16 18:30N 49°30' W 000°01'5 9.9
2017-Oct-16 18:00N 49°29' E 000°07'0 0.0
2017-Oct-16 17:30N 49°29' E 000°07'0 0.0
2017-Oct-16 17:00N 49°29' E 000°07'4 8.0
2017-Oct-16 16:30N 49°30' E 000°01'2 3.2
2017-Oct-16 16:00N 49°31' W 000°02'611.3
2017-Oct-16 15:30N 49°29' E 000°07'0 0.0
2017-Oct-16 15:00N 49°29' E 000°07'0 0.0
2017-Oct-16 14:30N 49°29' E 000°07'0 0.0
2017-Oct-16 13:30N 49°29' E 000°07'0 0.0
2017-Oct-16 13:01N 49°29' E 000°07'0 0.0
2017-Oct-16 12:30N 49°29' E 000°07'0 0.0
2017-Oct-16 12:00N 49°29' E 000°07'0 0.0
2017-Oct-16 11:30N 49°29' E 000°07'0 0.0
2017-Oct-16 11:00N 49°29' E 000°07'0 0.0
2017-Oct-16 10:30N 49°29' E 000°07'1 3.0
2017-Oct-16 10:00N 49°29' E 000°05'813.8
2017-Oct-16 09:27N 49°32' W 000°07'919.4
2017-Oct-16 09:00N 49°29' E 000°06'0 0.7
2017-Oct-16 08:30N 49°29' E 000°07'0 0.0
2017-Oct-16 08:00N 49°29' E 000°07'0 0.0
2017-Oct-16 07:30N 49°29' E 000°07'0 0.0
2017-Oct-16 07:00N 49°29' E 000°07'4 8.3
2017-Oct-16 06:30N 49°30' E 000°01'4 8.3
2017-Oct-16 06:00N 49°29' E 000°07'0 0.9
2017-Oct-16 05:30N 49°29' E 000°07'713.3
2017-Oct-16 04:57N 49°31' W 000°04'716.8
2017-Oct-16 04:30N 49°29' E 000°07'1 2.3
2017-Oct-16 04:00N 49°29' E 000°05'5 9.0
2017-Oct-16 03:30N 49°31' W 000°02'2 3.5
2017-Oct-16 03:00N 49°31' W 000°04'714.7
2017-Oct-16 02:30N 49°29' E 000°07'0 0.0
2017-Oct-16 02:00N 49°29' E 000°07'0 0.0
2017-Oct-16 01:30N 49°29' E 000°07'0 0.0
2017-Oct-16 01:00N 49°29' E 000°07'0 0.0
2017-Oct-16 00:30N 49°29' E 000°07'0 0.0
2017-Oct-16 00:00N 49°29' E 000°07'0 0.0
2017-Oct-15 23:30N 49°29' E 000°07'0 0.0
2017-Oct-15 23:00N 49°29' E 000°07'0 0.0
2017-Oct-15 22:30N 49°29' E 000°07'3 6.7
2017-Oct-15 22:00N 49°30' E 000°02'1 2.1
2017-Oct-15 21:30N 49°30' E 000°00'4 8.9
2017-Oct-15 21:00N 49°29' E 000°07'0 0.0
2017-Oct-15 20:30N 49°29' E 000°07'0 0.0
2017-Oct-15 20:00N 49°29' E 000°07'0 0.0
2017-Oct-15 19:30N 49°29' E 000°07'0 0.0
2017-Oct-15 19:00N 49°29' E 000°07'2 3.9
2017-Oct-15 18:30N 49°30' E 000°04'712.7
2017-Oct-15 17:58N 49°32' W 000°06'817.3
2017-Oct-15 17:31N 49°29' E 000°05'1 2.0
2017-Oct-15 17:00N 49°29' E 000°07'0 0.0
2017-Oct-15 16:30N 49°29' E 000°07'0 0.0
2017-Oct-15 16:00N 49°29' E 000°07'0 0.0
2017-Oct-15 15:30N 49°29' E 000°07'0 0.0
2017-Oct-15 15:00N 49°29' E 000°07'0 0.0
2017-Oct-15 14:00N 49°29' E 000°07'  
2017-Oct-12 14:58N 49°29' E 000°07'0 0.0
2017-Oct-12 14:31N 49°29' E 000°07'0 0.0
2017-Oct-12 14:00N 49°29' E 000°07'0 0.0
2017-Oct-12 13:31N 49°29' E 000°07'0 0.0
2017-Oct-12 13:01N 49°29' E 000°07'0 0.0
2017-Oct-12 12:31N 49°29' E 000°07'0 0.0
2017-Oct-12 12:01N 49°29' E 000°07'0 0.0
2017-Oct-12 09:20N 49°29' E 000°07'0 0.0
2017-Oct-12 09:00N 49°29' E 000°07'0 0.0
2017-Oct-12 08:31N 49°29' E 000°07'0 0.0
2017-Oct-12 08:00N 49°29' E 000°07'0 0.0
2017-Oct-12 07:30N 49°29' E 000°07'0 0.0
2017-Oct-12 07:00N 49°29' E 000°07'0 0.0
2017-Oct-12 06:30N 49°29' E 000°07'0 0.0
2017-Oct-11 00:01N 49°29' E 000°07'611.7
2017-Oct-10 23:30N 49°30' W 000°02'511.0
2017-Oct-10 23:00N 49°29' E 000°06'0 0.9
2017-Oct-10 22:30N 49°29' E 000°07'0 0.0
2017-Oct-10 22:01N 49°29' E 000°07'0 0.0
2017-Oct-10 21:30N 49°29' E 000°07'0 0.0
2017-Oct-10 21:00N 49°29' E 000°07'4 7.1
2017-Oct-10 20:30N 49°30' E 000°02'510.6
2017-Oct-10 20:00N 49°32' W 000°06'917.3
2017-Oct-10 19:30N 49°29' E 000°07'0 0.3
2017-Oct-10 19:00N 49°29' E 000°07'1 1.3
2017-Oct-10 18:31N 49°29' E 000°06'714.9
2017-Oct-10 18:01N 49°31' W 000°05'816.1
2017-Oct-10 17:30N 49°29' E 000°07'0 0.0
2017-Oct-10 17:00N 49°29' E 000°07'0 0.0
2017-Oct-10 16:30N 49°29' E 000°07'0 0.0
2017-Oct-10 16:00N 49°29' E 000°07'0 0.0
2017-Oct-10 15:30N 49°29' E 000°07'0 0.0
2017-Oct-10 15:00N 49°29' E 000°07'  
Track history (hours):
 
Tides and Currents Weather Stations Pressure Air Temp Water Temp Dewpoint Dewpoint Depression Visibility Wind Speed Wind Dir Waves Ship Positions

S C

Last reported at 2017-Oct-20 14:14 UTC. Time now 2017-Oct-22 06:40 UTC.
Position N 49°29' E 000°07'.

; draft 1 m.

Type: Pilot. MMSI: 227001820.

Date/timePositionNaut miles runAvg speedWind from/ knotsBaromVisibWave heightAir tempDewpointWater temp
2017-Oct-20 14:14N 49°29' E 000°07'0 0.0
2017-Oct-20 13:20N 49°29' E 000°07'0 0.0
2017-Oct-20 13:01N 49°29' E 000°07'0 0.0
2017-Oct-20 12:31N 49°29' E 000°07'0 0.0
2017-Oct-20 12:00N 49°29' E 000°07'0 0.0
2017-Oct-20 11:31N 49°29' E 000°07'0 0.0
2017-Oct-20 11:00N 49°29' E 000°07'0 0.0
2017-Oct-20 10:31N 49°29' E 000°07'0 0.0
2017-Oct-20 10:00N 49°29' E 000°07'0 0.0
2017-Oct-20 09:30N 49°29' E 000°07'0 0.0
2017-Oct-20 09:00N 49°29' E 000°07'0 0.0
2017-Oct-20 08:30N 49°29' E 000°07'0 0.0
2017-Oct-20 08:00N 49°29' E 000°07'0 0.0
2017-Oct-20 07:31N 49°29' E 000°07'0 0.0
2017-Oct-20 07:01N 49°29' E 000°07'0 0.0
2017-Oct-20 06:30N 49°29' E 000°07'0 0.0
2017-Oct-20 06:00N 49°29' E 000°07'0 0.0
2017-Oct-19 18:26N 49°29' E 000°07'716.4
2017-Oct-19 18:00N 49°31' W 000°04'713.7
2017-Oct-19 17:31N 49°29' E 000°07'0 0.3
2017-Oct-19 17:00N 49°29' E 000°07'0 0.0
2017-Oct-19 16:30N 49°29' E 000°07'0 0.0
2017-Oct-19 16:01N 49°29' E 000°07'0 0.0
2017-Oct-19 15:30N 49°29' E 000°07'0 0.0
2017-Oct-19 15:00N 49°29' E 000°07'0 0.0
2017-Oct-19 14:31N 49°29' E 000°07'0 0.0
2017-Oct-19 14:01N 49°29' E 000°07'0 0.0
2017-Oct-19 13:30N 49°29' E 000°07'0 0.0
2017-Oct-19 13:01N 49°29' E 000°07'0 0.0
2017-Oct-19 12:31N 49°29' E 000°07'0 0.0
2017-Oct-19 12:01N 49°29' E 000°07'0 0.0
2017-Oct-19 11:30N 49°29' E 000°07'0 0.0
2017-Oct-19 11:01N 49°29' E 000°07'0 0.0
2017-Oct-19 10:30N 49°29' E 000°07'5 9.9
2017-Oct-19 10:00N 49°30' W 000°01'5 9.9
2017-Oct-19 09:30N 49°29' E 000°07'0 0.0
2017-Oct-19 09:00N 49°29' E 000°07'0 0.0
2017-Oct-19 08:30N 49°29' E 000°07'0 0.0
2017-Oct-19 08:00N 49°29' E 000°07'0 0.3
2017-Oct-19 07:30N 49°29' E 000°07'510.2
2017-Oct-19 07:00N 49°30' W 000°01'510.3
2017-Oct-19 06:30N 49°29' E 000°07'0 0.0
2017-Oct-19 06:00N 49°29' E 000°07'0 0.0
2017-Oct-19 05:30N 49°29' E 000°07'0 0.0
2017-Oct-19 05:00N 49°29' E 000°07'0 0.0
2017-Oct-19 04:30N 49°29' E 000°07'0 0.0
2017-Oct-19 04:00N 49°29' E 000°07'2 4.8
2017-Oct-19 03:30N 49°30' E 000°03'2 3.6
2017-Oct-19 03:00N 49°31' E 000°01'4 8.3
2017-Oct-19 02:30N 49°29' E 000°07'0 0.0
2017-Oct-19 02:00N 49°29' E 000°07'4 7.5
2017-Oct-19 01:31N 49°30' E 000°01'4 7.5
2017-Oct-19 01:00N 49°29' E 000°07'0 0.0
2017-Oct-19 00:30N 49°29' E 000°07'0 0.0
2017-Oct-19 00:00N 49°29' E 000°07'0 0.0
2017-Oct-18 23:30N 49°29' E 000°07'0 0.0
2017-Oct-18 23:00N 49°29' E 000°07'0 0.0
2017-Oct-18 22:30N 49°29' E 000°07'510.6
2017-Oct-18 22:00N 49°31' W 000°01'510.6
2017-Oct-18 21:30N 49°29' E 000°07'0 0.0
2017-Oct-18 21:01N 49°29' E 000°07'0 0.0
2017-Oct-18 20:31N 49°29' E 000°07'0 0.0
2017-Oct-18 20:00N 49°29' E 000°07'714.0
2017-Oct-18 19:30N 49°31' W 000°04'713.9
2017-Oct-18 19:00N 49°29' E 000°07'0 0.0
2017-Oct-18 18:30N 49°29' E 000°07'1 2.0
2017-Oct-18 18:00N 49°29' E 000°05'713.6
2017-Oct-18 17:30N 49°31' W 000°05'815.5
2017-Oct-18 17:00N 49°29' E 000°07'612.5
2017-Oct-18 16:30N 49°31' W 000°03'2 3.5
2017-Oct-18 16:00N 49°31' W 000°05'815.9
2017-Oct-18 15:30N 49°29' E 000°07'0 0.2
2017-Oct-18 15:00N 49°29' E 000°07'0 0.0
2017-Oct-18 14:00N 49°29' E 000°07'0 0.0
2017-Oct-18 13:30N 49°29' E 000°07'0 0.6
2017-Oct-18 13:01N 49°29' E 000°06'0 0.2
2017-Oct-18 12:30N 49°29' E 000°06'0 0.4
2017-Oct-18 12:00N 49°29' E 000°07'0 0.0
2017-Oct-18 11:31N 49°29' E 000°07'0 0.0
2017-Oct-18 11:01N 49°29' E 000°07'2 3.9
2017-Oct-18 10:30N 49°30' E 000°04'611.7
2017-Oct-18 10:00N 49°32' W 000°05'815.6
2017-Oct-18 09:30N 49°29' E 000°07'0 0.0
2017-Oct-18 09:01N 49°29' E 000°07'0 0.0
2017-Oct-18 08:31N 49°29' E 000°07'1 1.5
2017-Oct-18 08:01N 49°29' E 000°06'2 4.0
2017-Oct-18 07:31N 49°30' E 000°03'3 5.5
2017-Oct-18 07:00N 49°29' E 000°07'0 0.0
2017-Oct-18 06:31N 49°29' E 000°07'0 0.0
2017-Oct-18 06:00N 49°29' E 000°07'0 0.0
2017-Oct-18 05:31N 49°29' E 000°07'0 0.0
2017-Oct-18 05:01N 49°29' E 000°07'0 0.0
2017-Oct-18 04:30N 49°29' E 000°07'0 0.0
2017-Oct-18 04:01N 49°29' E 000°07'713.7
2017-Oct-18 03:31N 49°31' W 000°03'0 0.5
2017-Oct-18 03:00N 49°31' W 000°03'2 3.2
2017-Oct-18 02:31N 49°31' W 000°06'816.7
2017-Oct-18 02:00N 49°29' E 000°07'0 0.0
2017-Oct-18 01:30N 49°29' E 000°07'0 0.0
2017-Oct-18 01:00N 49°29' E 000°07'2 4.4
2017-Oct-18 00:31N 49°30' E 000°03'2 4.4
2017-Oct-18 00:00N 49°29' E 000°07'0 0.0
2017-Oct-17 23:30N 49°29' E 000°07'0 0.0
2017-Oct-17 23:00N 49°29' E 000°07'0 0.0
2017-Oct-17 22:30N 49°29' E 000°07'0 0.0
2017-Oct-17 22:00N 49°29' E 000°07'0 0.0
2017-Oct-17 21:30N 49°29' E 000°07'713.2
2017-Oct-17 21:01N 49°31' W 000°03'612.4
2017-Oct-17 20:30N 49°29' E 000°06'0 0.8
2017-Oct-17 20:00N 49°29' E 000°07'3 6.6
2017-Oct-17 19:31N 49°30' E 000°02'4 7.5
2017-Oct-17 19:01N 49°31' W 000°04'714.1
2017-Oct-17 18:30N 49°29' E 000°07'0 0.0
2017-Oct-17 18:01N 49°29' E 000°07'510.8
2017-Oct-17 17:30N 49°30' W 000°01'510.9
2017-Oct-17 17:01N 49°29' E 000°07'0 0.0
2017-Oct-17 16:30N 49°29' E 000°07'0 0.0
2017-Oct-17 16:00N 49°29' E 000°07'0 0.0
2017-Oct-17 15:31N 49°29' E 000°07'0 0.0
2017-Oct-17 15:01N 49°29' E 000°07'4 8.5
2017-Oct-17 14:30N 49°30' E 000°00'1 2.4
2017-Oct-17 14:00N 49°29' W 000°01'5 9.7
2017-Oct-17 13:30N 49°29' E 000°06'1 1.0
2017-Oct-17 13:00N 49°29' E 000°07'0 0.0
2017-Oct-17 12:30N 49°29' E 000°07'0 0.0
2017-Oct-17 12:00N 49°29' E 000°07'0 0.0
2017-Oct-17 11:30N 49°29' E 000°07'0 0.0
2017-Oct-17 11:00N 49°29' E 000°07'0 0.0
2017-Oct-17 10:30N 49°29' E 000°07'2 3.4
2017-Oct-17 10:01N 49°29' E 000°04'2 3.3
2017-Oct-17 09:30N 49°29' E 000°07'0 0.0
2017-Oct-17 09:00N 49°29' E 000°07'0 0.0
2017-Oct-17 08:30N 49°29' E 000°07'0 0.0
2017-Oct-17 08:00N 49°29' E 000°07'0 0.0
2017-Oct-17 07:30N 49°29' E 000°07'0 0.0
2017-Oct-17 07:00N 49°29' E 000°07'0 0.0
2017-Oct-17 06:30N 49°29' E 000°07'0 0.0
2017-Oct-17 06:00N 49°29' E 000°07'0 0.3
2017-Oct-17 05:30N 49°29' E 000°07'0 0.3
2017-Oct-17 05:00N 49°29' E 000°07'0 0.0
2017-Oct-17 04:30N 49°29' E 000°07'611.1
2017-Oct-17 04:01N 49°31' W 000°01'1 1.5
2017-Oct-17 03:31N 49°30' W 000°00'5 9.5
2017-Oct-17 03:00N 49°29' E 000°07'4 8.1
2017-Oct-17 02:30N 49°30' E 000°01'4 7.6
2017-Oct-17 02:00N 49°31' W 000°05'815.5
2017-Oct-17 01:30N 49°29' E 000°07'0 0.1
2017-Oct-17 01:00N 49°29' E 000°07'0 0.0
2017-Oct-17 00:30N 49°29' E 000°07'0 0.0
2017-Oct-17 00:01N 49°29' E 000°07'0 0.0
2017-Oct-16 23:30N 49°29' E 000°07'0 0.0
2017-Oct-16 23:00N 49°29' E 000°07'0 0.0
2017-Oct-16 22:30N 49°29' E 000°07'0 0.0
2017-Oct-16 22:01N 49°29' E 000°07'0 0.0
2017-Oct-16 21:30N 49°29' E 000°07'3 6.2
2017-Oct-16 21:00N 49°30' E 000°02'1 2.4
2017-Oct-16 20:30N 49°29' E 000°04'2 3.9
2017-Oct-16 20:00N 49°29' E 000°07'0 0.0
2017-Oct-16 19:30N 49°29' E 000°07'2 4.5
2017-Oct-16 19:00N 49°30' E 000°03'3 5.4
2017-Oct-16 18:30N 49°30' W 000°01'5 9.9
2017-Oct-16 18:00N 49°29' E 000°07'0 0.0
2017-Oct-16 17:30N 49°29' E 000°07'0 0.0
2017-Oct-16 17:00N 49°29' E 000°07'4 8.0
2017-Oct-16 16:30N 49°30' E 000°01'2 3.2
2017-Oct-16 16:00N 49°31' W 000°02'611.3
2017-Oct-16 15:30N 49°29' E 000°07'0 0.0
2017-Oct-16 15:00N 49°29' E 000°07'0 0.0
2017-Oct-16 14:30N 49°29' E 000°07'0 0.0
2017-Oct-16 13:30N 49°29' E 000°07'0 0.0
2017-Oct-16 13:01N 49°29' E 000°07'0 0.0
2017-Oct-16 12:30N 49°29' E 000°07'0 0.0
2017-Oct-16 12:00N 49°29' E 000°07'0 0.0
2017-Oct-16 11:30N 49°29' E 000°07'0 0.0
2017-Oct-16 11:00N 49°29' E 000°07'0 0.0
2017-Oct-16 10:30N 49°29' E 000°07'1 3.0
2017-Oct-16 10:00N 49°29' E 000°05'813.8
2017-Oct-16 09:27N 49°32' W 000°07'919.4
2017-Oct-16 09:00N 49°29' E 000°06'0 0.7
2017-Oct-16 08:30N 49°29' E 000°07'0 0.0
2017-Oct-16 08:00N 49°29' E 000°07'0 0.0
2017-Oct-16 07:30N 49°29' E 000°07'0 0.0
2017-Oct-16 07:00N 49°29' E 000°07'4 8.3
2017-Oct-16 06:30N 49°30' E 000°01'4 8.3
2017-Oct-16 06:00N 49°29' E 000°07'0 0.9
2017-Oct-16 05:30N 49°29' E 000°07'713.3
2017-Oct-16 04:57N 49°31' W 000°04'716.8
2017-Oct-16 04:30N 49°29' E 000°07'1 2.3
2017-Oct-16 04:00N 49°29' E 000°05'5 9.0
2017-Oct-16 03:30N 49°31' W 000°02'2 3.5
2017-Oct-16 03:00N 49°31' W 000°04'714.7
2017-Oct-16 02:30N 49°29' E 000°07'0 0.0
2017-Oct-16 02:00N 49°29' E 000°07'0 0.0
2017-Oct-16 01:30N 49°29' E 000°07'0 0.0
2017-Oct-16 01:00N 49°29' E 000°07'0 0.0
2017-Oct-16 00:30N 49°29' E 000°07'0 0.0
2017-Oct-16 00:00N 49°29' E 000°07'0 0.0
2017-Oct-15 23:30N 49°29' E 000°07'0 0.0
2017-Oct-15 23:00N 49°29' E 000°07'0 0.0
2017-Oct-15 22:30N 49°29' E 000°07'3 6.7
2017-Oct-15 22:00N 49°30' E 000°02'1 2.1
2017-Oct-15 21:30N 49°30' E 000°00'4 8.9
2017-Oct-15 21:00N 49°29' E 000°07'0 0.0
2017-Oct-15 20:30N 49°29' E 000°07'0 0.0
2017-Oct-15 20:00N 49°29' E 000°07'0 0.0
2017-Oct-15 19:30N 49°29' E 000°07'0 0.0
2017-Oct-15 19:00N 49°29' E 000°07'2 3.9
2017-Oct-15 18:30N 49°30' E 000°04'712.7
2017-Oct-15 17:58N 49°32' W 000°06'817.3
2017-Oct-15 17:31N 49°29' E 000°05'1 2.0
2017-Oct-15 17:00N 49°29' E 000°07'0 0.0
2017-Oct-15 16:30N 49°29' E 000°07'0 0.0
2017-Oct-15 16:00N 49°29' E 000°07'0 0.0
2017-Oct-15 15:30N 49°29' E 000°07'0 0.0
2017-Oct-15 15:00N 49°29' E 000°07'0 0.0
2017-Oct-15 14:00N 49°29' E 000°07'  
2017-Oct-12 14:58N 49°29' E 000°07'0 0.0
2017-Oct-12 14:31N 49°29' E 000°07'0 0.0
2017-Oct-12 14:00N 49°29' E 000°07'0 0.0
2017-Oct-12 13:31N 49°29' E 000°07'0 0.0
2017-Oct-12 13:01N 49°29' E 000°07'0 0.0
2017-Oct-12 12:31N 49°29' E 000°07'0 0.0
2017-Oct-12 12:01N 49°29' E 000°07'0 0.0
2017-Oct-12 09:20N 49°29' E 000°07'0 0.0
2017-Oct-12 09:00N 49°29' E 000°07'0 0.0
2017-Oct-12 08:31N 49°29' E 000°07'0 0.0
2017-Oct-12 08:00N 49°29' E 000°07'0 0.0
2017-Oct-12 07:30N 49°29' E 000°07'0 0.0
2017-Oct-12 07:00N 49°29' E 000°07'0 0.0
2017-Oct-12 06:30N 49°29' E 000°07'0 0.0
2017-Oct-11 00:01N 49°29' E 000°07'611.7
2017-Oct-10 23:30N 49°30' W 000°02'511.0
2017-Oct-10 23:00N 49°29' E 000°06'0 0.9
2017-Oct-10 22:30N 49°29' E 000°07'0 0.0
2017-Oct-10 22:01N 49°29' E 000°07'0 0.0
2017-Oct-10 21:30N 49°29' E 000°07'0 0.0
2017-Oct-10 21:00N 49°29' E 000°07'4 7.1
2017-Oct-10 20:30N 49°30' E 000°02'510.6
2017-Oct-10 20:00N 49°32' W 000°06'917.3
2017-Oct-10 19:30N 49°29' E 000°07'0 0.3
2017-Oct-10 19:00N 49°29' E 000°07'1 1.3
2017-Oct-10 18:31N 49°29' E 000°06'714.9
2017-Oct-10 18:01N 49°31' W 000°05'816.1
2017-Oct-10 17:30N 49°29' E 000°07'0 0.0
2017-Oct-10 17:00N 49°29' E 000°07'0 0.0
2017-Oct-10 16:30N 49°29' E 000°07'0 0.0
2017-Oct-10 16:00N 49°29' E 000°07'0 0.0
2017-Oct-10 15:30N 49°29' E 000°07'0 0.0
2017-Oct-10 15:00N 49°29' E 000°07'  

Dump ship's entire track history